Terminal Aerodrome Forecast
Issued by NWS New Orleans/Baton Rouge, LA

Home | Current Version | Previous Version | Text Only | Print | Product List | Glossary On
Versions: 1 2 3 4 5 6 7 8 9 10 11 12 13 14 15 16
000
FTUS44 KLIX 011500 AAA
TAFBTR
TAF AMD
KBTR 011512Z 0115/0212 09007KT P6SM SCT008 BKN014 BKN110
      TEMPO 0116/0120 VRB06KT 3SM -RA BKN025
     FM020100 13005KT P6SM VCSH BKN030=

USA.gov is the U.S. government's official web portal to all federal, state and local government web resources and services.